createdAt,value
2019-05-13T00:01:18.836Z,7.20
2019-05-13T00:03:49.371Z,7.70
2019-05-13T00:06:19.944Z,7.73
2019-05-13T00:08:51.472Z,7.37
2019-05-13T00:11:23.987Z,7.70
2019-05-13T00:13:54.249Z,7.57
2019-05-13T00:16:24.757Z,7.57
2019-05-13T00:18:55.354Z,8.53
2019-05-13T00:21:25.908Z,7.70
2019-05-13T00:26:33.897Z,8.27
2019-05-13T00:29:04.570Z,10.00
2019-05-13T00:31:36.112Z,10.13
2019-05-13T00:34:06.720Z,8.47
2019-05-13T00:36:37.315Z,8.67
2019-05-13T00:39:08.722Z,10.50
2019-05-13T00:41:39.305Z,10.63
2019-05-13T00:44:09.864Z,10.60
2019-05-13T00:46:40.393Z,10.03
2019-05-13T00:49:13.261Z,10.17
2019-05-13T00:51:44.435Z,9.10
2019-05-13T00:54:15.180Z,9.70
2019-05-13T00:56:45.792Z,9.83
2019-05-13T00:59:16.363Z,7.97
2019-05-13T01:01:46.863Z,8.73
2019-05-13T01:04:17.350Z,8.37
2019-05-13T01:06:47.843Z,8.50
2019-05-13T01:09:18.422Z,7.97
2019-05-13T01:11:49.028Z,7.70
2019-05-13T01:14:20.474Z,10.30
2019-05-13T01:16:51.024Z,8.53
2019-05-13T01:19:23.574Z,8.93
2019-05-13T01:21:54.156Z,9.03
2019-05-13T01:24:24.599Z,9.20
2019-05-13T01:26:55.155Z,9.53
2019-05-13T01:29:25.708Z,9.03
2019-05-13T01:31:56.273Z,10.03
2019-05-13T01:34:26.849Z,9.80
2019-05-13T01:36:57.426Z,10.03
2019-05-13T01:39:27.976Z,9.90
2019-05-13T01:41:58.541Z,10.40
2019-05-13T01:44:29.037Z,10.13
2019-05-13T01:46:59.592Z,10.33
2019-05-13T01:49:30.155Z,11.77
2019-05-13T01:52:00.707Z,12.40
2019-05-13T01:54:33.643Z,12.27
2019-05-13T01:57:04.419Z,12.80
2019-05-13T01:59:35.231Z,11.93
2019-05-13T02:02:06.672Z,12.73
2019-05-13T02:04:37.229Z,13.13
2019-05-13T02:07:07.692Z,13.57
2019-05-13T02:09:38.265Z,14.20
2019-05-13T02:12:08.860Z,14.57
2019-05-13T02:14:39.428Z,14.23
2019-05-13T02:17:09.997Z,14.37
2019-05-13T02:19:40.485Z,15.57
2019-05-13T02:22:10.963Z,14.60
2019-05-13T02:27:25.514Z,14.20
2019-05-13T02:29:56.138Z,15.23
2019-05-13T02:32:26.635Z,15.57
2019-05-13T02:34:57.173Z,15.60
2019-05-13T02:37:29.536Z,15.20
2019-05-13T02:40:03.489Z,15.13
2019-05-13T02:42:32.721Z,15.23
2019-05-13T02:45:04.012Z,15.93
2019-05-13T02:47:34.650Z,14.27
2019-05-13T02:50:05.562Z,13.63
2019-05-13T02:52:36.119Z,15.90
2019-05-13T02:55:07.603Z,20.97
2019-05-13T02:57:38.200Z,21.17
2019-05-13T03:00:12.932Z,17.90
2019-05-13T03:02:43.751Z,17.33
2019-05-13T03:05:14.968Z,16.73
2019-05-13T03:07:45.526Z,17.20
2019-05-13T03:10:16.115Z,17.53
2019-05-13T03:12:46.706Z,16.47
2019-05-13T03:15:17.405Z,15.03
2019-05-13T03:18:06.524Z,13.67
2019-05-13T03:20:37.369Z,12.90
2019-05-13T03:23:07.938Z,12.60
2019-05-13T03:25:38.415Z,12.53
2019-05-13T03:28:13.203Z,12.50
2019-05-13T03:30:45.815Z,12.37
2019-05-13T03:33:19.307Z,13.23
2019-05-13T03:35:46.422Z,12.73
2019-05-13T03:38:16.913Z,12.33
2019-05-13T03:40:48.468Z,12.07
2019-05-13T03:43:22.921Z,12.20
2019-05-13T03:45:57.213Z,11.37
2019-05-13T03:51:12.949Z,11.80
2019-05-13T03:53:43.289Z,12.43
2019-05-13T03:56:14.969Z,12.83
2019-05-13T03:58:45.580Z,13.33
2019-05-13T04:01:16.174Z,11.50
2019-05-13T04:03:46.666Z,11.60
2019-05-13T04:06:17.153Z,11.20
2019-05-13T04:08:47.632Z,11.13
2019-05-13T04:11:18.124Z,10.53
2019-05-13T04:13:48.767Z,9.73
2019-05-13T04:16:23.338Z,11.40
2019-05-13T04:18:53.663Z,10.50
2019-05-13T04:21:24.016Z,10.00
2019-05-13T04:23:54.709Z,9.83
2019-05-13T04:26:25.272Z,8.73
2019-05-13T04:28:55.798Z,8.80
2019-05-13T04:31:26.474Z,8.37
2019-05-13T04:33:57.013Z,7.97
2019-05-13T04:36:27.498Z,8.40
2019-05-13T04:38:58.339Z,8.13
2019-05-13T04:41:28.821Z,8.37
2019-05-13T04:44:02.332Z,9.87
2019-05-13T04:46:32.765Z,10.27
2019-05-13T04:49:03.463Z,10.30
2019-05-13T04:51:34.913Z,9.80
2019-05-13T04:54:05.555Z,10.07
2019-05-13T04:56:36.076Z,10.33
2019-05-13T04:59:06.683Z,10.87
2019-05-13T05:02:16.552Z,10.63
2019-05-13T05:04:56.767Z,10.33
2019-05-13T05:07:52.499Z,10.23
2019-05-13T05:11:02.633Z,10.53
2019-05-13T05:14:02.739Z,11.03
2019-05-13T05:17:03.338Z,11.40
2019-05-13T05:20:23.089Z,12.90
2019-05-13T05:23:37.167Z,17.13
2019-05-13T05:26:43.109Z,13.37
2019-05-13T05:32:32.331Z,13.30
2019-05-13T05:35:25.849Z,12.20
2019-05-13T05:38:31.837Z,11.33
2019-05-13T05:41:03.495Z,10.80
2019-05-13T05:43:36.524Z,11.60
2019-05-13T05:46:11.107Z,10.40
2019-05-13T05:48:42.728Z,10.23
2019-05-13T05:51:14.711Z,10.00
2019-05-13T05:53:47.104Z,9.67
2019-05-13T05:56:17.793Z,9.20
2019-05-13T05:58:52.340Z,8.90
2019-05-13T06:01:24.248Z,9.03
2019-05-13T06:03:57.555Z,9.03
2019-05-13T06:06:28.879Z,8.67
2019-05-13T06:11:48.475Z,8.53
2019-05-13T06:14:21.756Z,8.17
2019-05-13T06:16:51.954Z,8.43
2019-05-13T06:19:22.655Z,8.77
2019-05-13T06:21:53.233Z,8.00
2019-05-13T06:24:26.775Z,8.20
2019-05-13T06:26:56.223Z,9.33
2019-05-13T06:29:26.760Z,8.93
2019-05-13T06:31:57.365Z,8.83
2019-05-13T06:34:28.020Z,7.87
2019-05-13T06:36:58.614Z,8.57
2019-05-13T06:39:31.677Z,8.10
2019-05-13T06:44:51.366Z,6.27
2019-05-13T06:47:22.159Z,5.30
2019-05-13T06:49:52.676Z,5.20
2019-05-13T06:52:23.173Z,5.17
2019-05-13T06:54:53.720Z,5.20
2019-05-13T06:57:24.239Z,5.17
2019-05-13T06:59:55.787Z,5.03
2019-05-13T07:02:26.273Z,4.60
2019-05-13T07:04:56.750Z,4.23
2019-05-13T07:07:27.330Z,3.87
2019-05-13T07:09:58.003Z,3.63
2019-05-13T07:12:31.012Z,3.40
2019-05-13T07:15:02.510Z,3.67
2019-05-13T07:17:33.988Z,3.20
2019-05-13T07:20:04.999Z,3.57
2019-05-13T07:22:35.553Z,3.07
2019-05-13T07:25:06.206Z,3.13
2019-05-13T07:27:37.768Z,2.70
2019-05-13T07:30:11.138Z,7.20
2019-05-13T07:32:42.042Z,11.33
2019-05-13T07:35:14.547Z,3.50
2019-05-13T07:37:45.220Z,3.23
2019-05-13T07:40:15.866Z,3.00
2019-05-13T07:42:46.498Z,2.93
2019-05-13T07:45:17.035Z,3.00
2019-05-13T07:47:47.597Z,3.13
2019-05-13T07:50:18.167Z,2.83
2019-05-13T07:52:51.332Z,2.80
2019-05-13T07:55:22.254Z,2.53
2019-05-13T07:57:52.905Z,2.33
2019-05-13T08:00:23.829Z,2.33
2019-05-13T08:02:54.448Z,2.10
2019-05-13T08:05:25.009Z,2.57
2019-05-13T08:07:55.631Z,2.80
2019-05-13T08:10:26.192Z,1.83
2019-05-13T08:12:56.778Z,1.77
2019-05-13T08:15:27.357Z,1.70
2019-05-13T08:17:58.015Z,1.30
2019-05-13T08:20:28.504Z,1.30
2019-05-13T08:22:59.063Z,1.47
2019-05-13T08:25:31.603Z,1.37
2019-05-13T08:28:02.206Z,1.90
2019-05-13T08:30:32.819Z,1.60
2019-05-13T08:33:03.465Z,1.40
2019-05-13T08:35:34.024Z,1.70
2019-05-13T08:38:04.591Z,1.60
2019-05-13T08:40:35.214Z,1.60
2019-05-13T08:43:06.866Z,1.60
2019-05-13T08:45:37.553Z,1.40
2019-05-13T08:48:09.027Z,1.80
2019-05-13T08:50:41.810Z,1.30
2019-05-13T08:53:12.257Z,1.50
2019-05-13T08:55:43.142Z,1.30
2019-05-13T08:58:14.806Z,1.63
2019-05-13T09:00:58.825Z,2.13
2019-05-13T09:03:28.000Z,1.53
2019-05-13T09:05:58.535Z,1.50
2019-05-13T09:08:31.832Z,1.57
2019-05-13T09:11:01.757Z,1.40
2019-05-13T09:13:33.099Z,1.80
2019-05-13T09:16:03.904Z,3.10
2019-05-13T09:18:35.511Z,2.77
2019-05-13T09:21:06.083Z,2.00
2019-05-13T09:23:36.665Z,2.00
2019-05-13T09:26:07.375Z,1.90
2019-05-13T09:28:37.973Z,2.10
2019-05-13T09:31:08.574Z,1.90
2019-05-13T09:33:41.650Z,2.10
2019-05-13T09:36:12.528Z,2.03
2019-05-13T09:38:44.259Z,1.87
2019-05-13T09:41:14.742Z,2.23
2019-05-13T09:43:45.306Z,2.30
2019-05-13T09:46:15.875Z,2.00
2019-05-13T09:48:46.401Z,2.47
2019-05-13T09:51:16.987Z,2.23
2019-05-13T09:53:47.534Z,2.10
2019-05-13T09:56:18.139Z,1.60
2019-05-13T09:58:51.188Z,2.00
2019-05-13T10:01:22.550Z,1.90
2019-05-13T10:03:58.026Z,2.50
2019-05-13T10:06:26.605Z,2.00
2019-05-13T10:08:57.182Z,1.80
2019-05-13T10:11:29.466Z,2.13
2019-05-13T10:14:02.120Z,1.90
2019-05-13T10:16:33.015Z,1.73
2019-05-13T10:19:03.685Z,1.80
2019-05-13T10:21:34.241Z,1.90
2019-05-13T10:24:05.097Z,1.70
2019-05-13T10:26:35.653Z,1.90
2019-05-13T10:29:06.405Z,2.00
2019-05-13T10:31:37.017Z,1.90
2019-05-13T10:34:07.630Z,1.80
2019-05-13T10:36:38.213Z,1.90
2019-05-13T10:39:11.882Z,1.63
2019-05-13T10:44:31.709Z,1.90
2019-05-13T10:47:02.633Z,1.40
2019-05-13T10:49:34.032Z,1.67
2019-05-13T10:52:04.665Z,1.83
2019-05-13T10:54:35.517Z,2.00
2019-05-13T10:57:06.093Z,1.63
2019-05-13T10:59:36.680Z,1.77
2019-05-13T11:02:07.218Z,1.83
2019-05-13T11:04:37.768Z,1.60
2019-05-13T11:07:08.372Z,1.60
2019-05-13T11:09:41.568Z,1.70
2019-05-13T11:12:12.441Z,1.83
2019-05-13T11:14:46.709Z,1.93
2019-05-13T11:17:15.250Z,2.00
2019-05-13T11:19:45.832Z,1.83
2019-05-13T11:22:16.388Z,1.70
2019-05-13T11:24:46.889Z,1.93
2019-05-13T11:27:17.480Z,1.93
2019-05-13T11:29:48.358Z,1.90
2019-05-13T11:32:18.928Z,1.33
2019-05-13T11:34:49.431Z,1.90
2019-05-13T11:37:22.357Z,2.20
2019-05-13T11:39:52.121Z,1.80
2019-05-13T11:42:22.971Z,1.73
2019-05-13T11:44:53.668Z,1.60
2019-05-13T11:47:24.151Z,1.80
2019-05-13T11:49:54.706Z,1.60
2019-05-13T11:52:25.264Z,2.10
2019-05-13T11:54:55.839Z,2.70
2019-05-13T12:00:15.974Z,2.00
2019-05-13T12:02:50.839Z,1.90
2019-05-13T12:05:18.687Z,1.90
2019-05-13T12:07:53.315Z,2.47
2019-05-13T12:10:22.804Z,2.40
2019-05-13T12:12:53.484Z,1.83
2019-05-13T12:18:23.347Z,2.00
2019-05-13T12:20:53.930Z,1.87
2019-05-13T12:23:24.484Z,1.90
2019-05-13T12:25:55.061Z,1.87
2019-05-13T12:28:25.557Z,1.83
2019-05-13T12:30:56.117Z,1.80
2019-05-13T12:33:26.675Z,1.63
2019-05-13T12:35:57.215Z,2.07
2019-05-13T12:38:27.709Z,1.90
2019-05-13T12:40:58.388Z,1.93
2019-05-13T12:43:32.008Z,2.10
2019-05-13T12:46:02.751Z,2.00
2019-05-13T12:48:33.332Z,2.30
2019-05-13T12:51:04.111Z,2.17
2019-05-13T12:53:34.678Z,2.00
2019-05-13T12:56:05.353Z,2.13
2019-05-13T14:57:41.839Z,2.70
2019-05-13T15:00:13.201Z,3.27
2019-05-13T15:02:43.768Z,2.98
2019-05-13T15:05:14.517Z,3.08
2019-05-13T15:07:45.069Z,2.70
2019-05-13T15:10:15.915Z,2.90
2019-05-13T15:12:46.438Z,3.00
2019-05-13T15:15:17.587Z,3.37
2019-05-13T15:17:48.669Z,3.70
2019-05-13T15:20:21.619Z,2.87
2019-05-13T15:22:52.068Z,3.08
2019-05-13T15:25:22.833Z,3.55
2019-05-13T15:27:54.221Z,2.90
2019-05-13T15:30:25.097Z,3.22
2019-05-13T15:32:55.780Z,2.80
2019-05-13T15:35:26.408Z,3.83
2019-05-13T15:37:56.950Z,3.60
2019-05-13T15:40:27.656Z,3.30
2019-05-13T15:42:58.193Z,3.20
2019-05-13T15:45:29.063Z,3.08
2019-05-13T15:48:02.089Z,3.15
2019-05-13T15:50:32.210Z,5.47
2019-05-13T15:53:03.066Z,3.90
2019-05-13T15:55:33.562Z,3.95
2019-05-13T15:58:04.331Z,3.70
2019-05-13T16:00:35.150Z,3.27
2019-05-13T16:03:06.092Z,4.03
2019-05-13T16:05:36.648Z,4.40
2019-05-13T16:08:07.199Z,4.00
2019-05-13T16:10:37.798Z,4.33
2019-05-13T16:13:08.362Z,3.72
2019-05-13T16:15:41.450Z,4.55
2019-05-13T16:18:11.778Z,3.70
2019-05-13T16:20:45.113Z,3.72
2019-05-13T16:26:04.001Z,4.47
2019-05-13T16:28:34.915Z,4.40
2019-05-13T16:31:05.694Z,4.53
2019-05-13T16:33:36.253Z,3.60
2019-05-13T16:36:06.873Z,3.90
2019-05-13T16:38:37.480Z,4.20
2019-05-13T16:41:07.974Z,4.45
2019-05-13T16:43:38.643Z,4.33
2019-05-13T16:46:11.916Z,4.10
2019-05-13T16:48:42.022Z,4.20
2019-05-13T16:51:12.877Z,4.12
2019-05-13T16:53:43.698Z,5.28
2019-05-13T16:56:26.882Z,5.45
2019-05-13T16:58:46.548Z,4.28
2019-05-13T17:01:17.060Z,4.08
2019-05-13T17:03:47.642Z,3.80
2019-05-13T17:06:18.580Z,4.60
2019-05-13T17:08:51.473Z,4.78
2019-05-13T17:11:21.576Z,5.83
2019-05-13T17:13:52.184Z,6.47
2019-05-13T17:16:23.353Z,5.37
2019-05-13T17:18:54.077Z,5.10
2019-05-13T17:21:24.654Z,4.80
2019-05-13T17:23:55.555Z,4.78
2019-05-13T17:26:26.143Z,4.40
2019-05-13T17:28:56.684Z,4.67
2019-05-13T17:31:27.241Z,4.20
2019-05-13T17:33:57.830Z,4.50
2019-05-13T17:36:28.394Z,4.67
2019-05-13T17:38:58.919Z,4.28
2019-05-13T17:41:31.939Z,5.10
2019-05-13T17:44:02.504Z,4.90
2019-05-13T17:46:33.815Z,7.53
2019-05-13T17:49:04.350Z,6.03
2019-05-13T17:51:34.870Z,6.08
2019-05-13T17:54:05.558Z,9.95
2019-05-13T17:56:36.094Z,6.53
2019-05-13T17:59:06.656Z,7.28
2019-05-13T18:01:37.210Z,10.08
2019-05-13T18:04:07.815Z,5.67
2019-05-13T18:06:38.389Z,4.30
2019-05-13T18:09:11.998Z,5.08
2019-05-13T18:11:42.221Z,4.78
2019-05-13T18:14:12.764Z,4.78
2019-05-13T18:16:43.468Z,4.55
2019-05-13T18:19:13.977Z,4.45
2019-05-13T18:21:44.590Z,4.03
2019-05-13T18:24:15.145Z,4.08
2019-05-13T18:26:45.723Z,4.37
2019-05-13T18:29:16.589Z,4.10
2019-05-13T18:31:47.225Z,3.83
2019-05-13T18:34:17.940Z,3.80
2019-05-13T18:36:48.646Z,3.40
2019-05-13T18:39:21.458Z,3.75
2019-05-13T18:41:51.554Z,3.70
2019-05-13T18:44:22.101Z,3.70
2019-05-13T18:46:53.032Z,3.47
2019-05-13T18:49:23.834Z,3.70
2019-05-13T18:51:54.702Z,3.47
2019-05-13T18:54:25.402Z,3.60
2019-05-13T18:56:56.254Z,3.40
2019-05-13T18:59:26.881Z,3.30
2019-05-13T19:01:57.587Z,3.55
2019-05-13T19:04:28.232Z,3.20
2019-05-13T19:07:01.935Z,3.02
2019-05-13T19:09:31.696Z,3.33
2019-05-13T19:12:03.459Z,3.40
2019-05-13T19:14:34.147Z,3.83
2019-05-13T19:17:04.959Z,3.50
2019-05-13T19:19:35.590Z,3.90
2019-05-13T19:22:06.392Z,3.50
2019-05-13T19:24:37.066Z,3.43
2019-05-13T19:27:07.753Z,10.73
2019-05-13T19:29:38.401Z,5.97
2019-05-13T19:32:09.005Z,3.70
2019-05-13T19:34:42.120Z,3.00
2019-05-13T19:37:12.176Z,2.90
2019-05-13T19:39:43.186Z,3.43
2019-05-13T19:42:13.946Z,3.30
2019-05-13T19:44:44.582Z,3.00
2019-05-13T19:47:15.124Z,3.40
2019-05-13T19:49:46.737Z,2.77
2019-05-13T19:52:17.558Z,2.97
2019-05-13T19:54:48.083Z,2.77
2019-05-13T19:57:21.123Z,3.53
2019-05-13T19:59:51.278Z,3.63
2019-05-13T20:02:22.316Z,3.57
2019-05-13T20:04:53.170Z,3.33
2019-05-13T20:07:23.886Z,3.27
2019-05-13T20:09:54.453Z,3.83
2019-05-13T20:12:25.063Z,3.60
2019-05-13T20:14:55.613Z,3.70
2019-05-13T20:17:26.197Z,3.50
2019-05-13T20:19:56.898Z,3.60
2019-05-13T20:22:27.478Z,3.50
2019-05-13T20:24:58.175Z,4.20
2019-05-13T20:27:28.750Z,4.50
2019-05-13T20:30:01.406Z,4.07
2019-05-13T20:32:31.606Z,3.83
2019-05-13T20:35:02.362Z,4.10
2019-05-13T20:37:32.884Z,4.27
2019-05-13T20:40:03.558Z,4.00
2019-05-13T20:42:34.149Z,4.10
2019-05-13T20:45:05.003Z,3.60
2019-05-13T20:47:35.626Z,3.30
2019-05-13T20:50:06.451Z,3.10
2019-05-13T20:52:37.330Z,2.80
2019-05-13T20:55:08.005Z,3.30
2019-05-13T20:57:38.575Z,3.00
2019-05-13T21:00:09.436Z,2.50
2019-05-13T21:02:41.806Z,2.77
2019-05-13T21:05:12.601Z,3.10
2019-05-13T21:07:43.290Z,3.50
2019-05-13T21:10:13.967Z,3.00
2019-05-13T21:12:44.551Z,2.70
2019-05-13T21:15:15.358Z,2.60
2019-05-13T21:17:45.959Z,2.80
2019-05-13T21:20:22.071Z,2.77
2019-05-13T21:22:48.740Z,2.80
2019-05-13T21:25:19.453Z,2.77
2019-05-13T21:27:51.475Z,2.30
2019-05-13T21:30:22.330Z,2.13
2019-05-13T21:32:52.900Z,1.97
2019-05-13T21:35:23.409Z,2.30
2019-05-13T21:37:54.018Z,2.27
2019-05-13T21:40:24.550Z,2.17
2019-05-13T21:42:55.105Z,2.13
2019-05-13T21:45:25.705Z,2.20
2019-05-13T21:47:56.344Z,2.03
2019-05-13T21:50:34.264Z,2.63
2019-05-13T21:53:01.866Z,2.27
2019-05-13T21:55:31.699Z,2.60
2019-05-13T21:58:03.300Z,2.20
2019-05-13T22:00:41.669Z,2.10
2019-05-13T22:03:15.290Z,2.70
2019-05-13T22:05:45.964Z,2.20
2019-05-13T22:08:16.461Z,2.40
2019-05-13T22:10:47.100Z,2.77
2019-05-13T22:13:18.053Z,2.60
2019-05-13T22:15:48.667Z,3.00
2019-05-13T22:18:19.755Z,2.77
2019-05-13T22:20:53.449Z,2.67
2019-05-13T22:23:22.612Z,2.90
2019-05-13T22:25:53.134Z,2.50
2019-05-13T22:28:23.812Z,2.60
2019-05-13T22:30:54.386Z,2.27
2019-05-13T22:33:25.243Z,2.73
2019-05-13T22:35:56.191Z,2.20
2019-05-13T22:38:26.775Z,2.27
2019-05-13T22:40:57.413Z,2.30
2019-05-13T22:43:28.042Z,3.00
2019-05-13T22:45:58.808Z,2.93
2019-05-13T22:48:31.519Z,2.20
2019-05-13T22:51:02.022Z,2.37
2019-05-13T22:53:32.752Z,2.20
2019-05-13T22:56:03.490Z,2.23
2019-05-13T22:58:34.202Z,2.13
2019-05-13T23:01:05.368Z,2.07
2019-05-13T23:03:36.292Z,2.47
2019-05-13T23:06:06.952Z,2.70
2019-05-13T23:08:37.768Z,2.60
2019-05-13T23:11:08.358Z,2.73
2019-05-13T23:13:38.959Z,2.50
2019-05-13T23:16:11.537Z,2.73
2019-05-13T23:18:42.277Z,2.73
2019-05-13T23:21:12.848Z,2.60
2019-05-13T23:23:43.296Z,2.50
2019-05-13T23:26:13.880Z,2.70
2019-05-13T23:28:44.430Z,2.10
2019-05-13T23:31:14.959Z,2.00
2019-05-13T23:33:47.482Z,2.50
2019-05-13T23:36:18.296Z,2.10
2019-05-13T23:38:48.972Z,2.27
2019-05-13T23:41:21.643Z,2.00
2019-05-13T23:43:51.750Z,2.17
2019-05-13T23:46:22.447Z,2.30
2019-05-13T23:48:53.260Z,2.20
2019-05-13T23:51:23.820Z,2.40
2019-05-13T23:53:54.473Z,2.30
2019-05-13T23:56:25.076Z,2.20
2019-05-13T23:58:55.567Z,2.10
